Time;durP1;ratioP1;P1;durP2;ratioP2;P2;SDS_P1;SDS_P2;PMS_P1;PMS_P2;Temp;Humidity;BMP_temperature;BMP_pressure;BME280_temperature;BME280_humidity;BME280_pressure;Samples;Min_cycle;Max_cycle;Signal;HPM_P1;HPM_P2
2023/05/14 00:00:36;;;;;;;11.73;10.53;;;12.40;99.90;;;;;;6212858;23;20428;-76
2023/05/14 00:03:02;;;;;;;14.83;12.03;;;12.40;99.90;;;;;;6238982;23;20126;-76
2023/05/14 00:05:28;;;;;;;13.50;10.57;;;12.30;99.90;;;;;;6212939;23;20173;-76
2023/05/14 00:07:54;;;;;;;10.57;9.47;;;12.30;99.90;;;;;;6211671;23;20373;-80
2023/05/14 00:10:20;;;;;;;11.57;10.37;;;12.20;99.90;;;;;;6238478;23;20161;-78
2023/05/14 00:12:46;;;;;;;18.13;12.67;;;12.20;99.90;;;;;;6237396;23;20161;-80
2023/05/14 00:15:12;;;;;;;14.73;11.90;;;12.10;99.90;;;;;;6237816;23;20805;-78
2023/05/14 00:17:37;;;;;;;16.13;13.47;;;12.10;99.90;;;;;;6235878;23;20456;-78
2023/05/14 00:20:06;;;;;;;16.60;13.57;;;12.20;99.90;;;;;;6237982;23;20182;-78
2023/05/14 00:22:36;;;;;;;15.37;13.77;;;12.20;99.90;;;;;;6236577;23;20142;-79
2023/05/14 00:25:02;;;;;;;14.27;12.20;;;12.20;99.90;;;;;;6235441;23;20425;-77
2023/05/14 00:27:27;;;;;;;13.73;12.33;;;12.10;99.90;;;;;;6177938;23;20422;-77
2023/05/14 00:29:53;;;;;;;13.93;11.17;;;12.10;99.90;;;;;;6127949;23;20478;-78
2023/05/14 00:32:19;;;;;;;12.77;10.47;;;12.00;99.90;;;;;;6153512;23;20158;-78
2023/05/14 00:34:44;;;;;;;10.10;8.83;;;12.00;99.90;;;;;;6154122;23;20136;-79
2023/05/14 00:37:10;;;;;;;13.93;10.90;;;11.90;99.90;;;;;;6149755;23;20163;-77
2023/05/14 00:39:36;;;;;;;13.80;11.03;;;11.80;99.90;;;;;;6148160;23;20185;-76
2023/05/14 00:42:01;;;;;;;16.00;14.23;;;11.80;99.90;;;;;;6146758;23;20154;-74
2023/05/14 00:44:27;;;;;;;13.03;11.63;;;11.80;99.90;;;;;;6172469;23;20123;-77
2023/05/14 00:46:53;;;;;;;13.50;11.03;;;11.80;99.90;;;;;;6173728;23;20143;-75
2023/05/14 00:49:20;;;;;;;12.63;10.30;;;11.80;99.90;;;;;;6149368;23;20175;-75
2023/05/14 00:51:47;;;;;;;11.90;9.50;;;11.80;99.90;;;;;;6150765;23;20438;-79
2023/05/14 00:54:16;;;;;;;11.20;9.50;;;11.80;99.90;;;;;;6122855;23;20386;-77
2023/05/14 00:56:44;;;;;;;8.80;7.90;;;11.70;99.90;;;;;;6172168;23;20417;-77
2023/05/14 00:59:10;;;;;;;11.57;9.83;;;11.70;99.90;;;;;;6192282;23;20436;-77
2023/05/14 01:01:36;;;;;;;11.87;10.37;;;11.70;99.90;;;;;;6206227;23;20829;-78
2023/05/14 01:04:02;;;;;;;9.80;8.80;;;11.70;99.90;;;;;;6231020;23;20198;-77
2023/05/14 01:06:51;;;;;;;10.20;8.90;;;11.60;99.90;;;;;;6207957;23;20400;-76
2023/05/14 01:09:50;;;;;;;12.53;9.80;;;11.60;99.90;;;;;;6230326;23;20393;-75
2023/05/14 01:12:28;;;;;;;11.80;10.60;;;11.60;99.90;;;;;;6223772;23;20773;-76
2023/05/14 01:15:06;;;;;;;12.67;10.97;;;11.50;99.90;;;;;;6206100;23;20376;-75
2023/05/14 01:17:36;;;;;;;15.80;14.00;;;11.50;99.90;;;;;;6230664;23;20396;-74
2023/05/14 01:20:03;;;;;;;14.17;11.30;;;11.50;99.90;;;;;;6235344;23;20420;-75
2023/05/14 01:22:28;;;;;;;13.20;12.00;;;11.50;99.90;;;;;;6230347;23;20377;-75
2023/05/14 01:24:54;;;;;;;15.00;13.43;;;11.50;99.90;;;;;;6229575;23;20373;-75
2023/05/14 01:27:39;;;;;;;13.27;11.90;;;11.50;99.90;;;;;;6233864;23;20122;-75
2023/05/14 01:30:35;;;;;;;15.37;13.73;;;11.40;99.90;;;;;;6206234;23;20247;-75
2023/05/14 01:33:05;;;;;;;12.77;11.50;;;11.40;99.90;;;;;;6231011;23;20365;-77
2023/05/14 01:35:31;;;;;;;12.90;11.30;;;11.30;99.90;;;;;;6203246;23;20365;-76
2023/05/14 01:38:02;;;;;;;12.00;10.83;;;11.20;99.90;;;;;;6227171;23;20514;-76
2023/05/14 01:40:29;;;;;;;15.17;12.47;;;11.20;99.90;;;;;;6226845;23;20393;-75
2023/05/14 01:42:55;;;;;;;14.07;12.67;;;11.20;99.90;;;;;;6230519;23;20412;-77
2023/05/14 01:45:22;;;;;;;11.03;9.93;;;11.10;99.90;;;;;;6207875;23;20383;-76
2023/05/14 01:47:48;;;;;;;13.13;11.83;;;11.10;99.90;;;;;;6232006;23;20591;-76
2023/05/14 01:50:15;;;;;;;13.20;11.90;;;11.10;99.90;;;;;;6232976;23;20385;-78
2023/05/14 01:52:41;;;;;;;11.67;10.57;;;11.00;99.90;;;;;;6204576;23;20369;-75
2023/05/14 01:55:07;;;;;;;11.77;10.57;;;11.00;99.90;;;;;;6228337;23;20769;-76
2023/05/14 01:57:33;;;;;;;9.80;8.80;;;10.90;99.90;;;;;;6228568;23;20189;-76
2023/05/14 01:59:58;;;;;;;10.27;9.17;;;10.90;99.90;;;;;;6229837;23;20420;-76
2023/05/14 02:02:24;;;;;;;12.73;11.33;;;10.90;99.90;;;;;;6229486;23;20500;-74
2023/05/14 02:04:50;;;;;;;11.40;10.27;;;10.80;99.90;;;;;;6229920;23;20141;-73
2023/05/14 02:07:16;;;;;;;10.47;9.40;;;10.80;99.90;;;;;;6228762;23;20157;-78
2023/05/14 02:09:41;;;;;;;14.13;11.13;;;10.80;99.90;;;;;;6229303;23;20385;-76
2023/05/14 02:12:08;;;;;;;10.80;9.20;;;10.80;99.90;;;;;;6228907;23;20137;-76
2023/05/14 02:14:33;;;;;;;11.87;10.77;;;10.70;99.90;;;;;;6229376;23;20141;-76
2023/05/14 02:16:59;;;;;;;13.83;11.27;;;10.70;99.90;;;;;;6230035;23;20369;-75
2023/05/14 02:19:25;;;;;;;10.37;9.47;;;10.70;99.90;;;;;;6231137;23;20424;-76
2023/05/14 02:21:51;;;;;;;10.83;9.73;;;10.60;99.90;;;;;;6227436;23;20198;-75
2023/05/14 02:24:16;;;;;;;12.77;11.00;;;10.60;99.90;;;;;;6226868;23;20150;-75
2023/05/14 02:26:42;;;;;;;13.50;12.10;;;10.60;99.90;;;;;;6203236;23;20545;-74
2023/05/14 02:29:07;;;;;;;13.70;12.40;;;10.60;99.90;;;;;;6201619;23;20153;-75
2023/05/14 02:31:33;;;;;;;13.20;11.90;;;10.60;99.90;;;;;;6228469;23;20154;-76
2023/05/14 02:34:07;;;;;;;13.30;12.07;;;10.60;99.90;;;;;;6227509;23;20399;-76
2023/05/14 02:36:33;;;;;;;13.10;11.53;;;10.50;99.90;;;;;;6227154;23;20206;-77
2023/05/14 02:39:03;;;;;;;14.70;12.10;;;10.50;99.90;;;;;;6228615;23;20397;-74
2023/05/14 02:41:29;;;;;;;14.37;12.50;;;10.40;99.90;;;;;;6226982;23;20525;-76
2023/05/14 02:43:55;;;;;;;14.40;13.00;;;10.40;99.90;;;;;;6227188;23;20361;-75
2023/05/14 02:46:21;;;;;;;15.43;13.93;;;10.40;99.90;;;;;;6227590;23;20365;-74
2023/05/14 02:48:46;;;;;;;14.40;12.77;;;10.40;99.90;;;;;;6201062;23;20138;-74
2023/05/14 02:51:12;;;;;;;14.23;10.70;;;10.30;99.90;;;;;;6203814;23;20156;-75
2023/05/14 02:53:37;;;;;;;11.87;10.70;;;10.30;99.90;;;;;;6230124;23;20194;-76
2023/05/14 02:56:03;;;;;;;12.67;11.37;;;10.30;99.90;;;;;;6231052;23;20534;-75
2023/05/14 02:58:29;;;;;;;12.37;11.07;;;10.20;99.90;;;;;;6231451;23;20165;-75
2023/05/14 03:00:55;;;;;;;12.37;11.07;;;10.20;99.90;;;;;;6228806;23;20563;-75
2023/05/14 03:03:20;;;;;;;10.87;9.80;;;10.10;99.90;;;;;;6204445;23;20141;-74
2023/05/14 03:05:46;;;;;;;9.73;8.80;;;10.10;99.90;;;;;;6232843;23;20173;-75
2023/05/14 03:08:12;;;;;;;11.60;9.57;;;10.00;99.90;;;;;;6230388;23;20142;-75
2023/05/14 03:10:37;;;;;;;14.10;11.80;;;10.00;99.90;;;;;;6227399;23;20176;-74
2023/05/14 03:13:03;;;;;;;14.77;13.30;;;10.00;99.90;;;;;;6230427;23;20134;-75
2023/05/14 03:15:28;;;;;;;13.80;12.40;;;9.90;99.90;;;;;;6206836;23;20145;-76
2023/05/14 03:17:54;;;;;;;11.20;10.10;;;9.90;99.90;;;;;;6207718;23;20157;-74
2023/05/14 03:20:22;;;;;;;9.70;8.80;;;9.90;99.90;;;;;;6228276;23;20190;-75
2023/05/14 03:22:47;;;;;;;10.37;9.20;;;9.90;99.90;;;;;;6228041;23;20169;-75
2023/05/14 03:25:13;;;;;;;11.67;10.40;;;9.80;99.90;;;;;;6203766;23;20362;-75
2023/05/14 03:27:40;;;;;;;9.90;8.90;;;9.80;99.90;;;;;;6229401;23;20368;-75
2023/05/14 03:30:06;;;;;;;10.27;9.13;;;9.80;99.90;;;;;;6229954;23;20166;-74
2023/05/14 03:32:32;;;;;;;10.37;9.47;;;9.80;99.90;;;;;;6226277;23;20392;-73
2023/05/14 03:34:57;;;;;;;9.40;8.53;;;9.80;99.90;;;;;;6224844;23;20704;-73
2023/05/14 03:37:24;;;;;;;10.43;9.33;;;9.80;99.90;;;;;;6225779;23;20158;-74
2023/05/14 03:39:49;;;;;;;9.77;8.73;;;9.70;99.90;;;;;;6226825;23;20178;-75
2023/05/14 03:42:15;;;;;;;9.47;8.47;;;9.70;99.90;;;;;;6226532;23;20466;-74
2023/05/14 03:44:40;;;;;;;9.83;8.93;;;9.70;99.90;;;;;;6224727;23;20512;-74
2023/05/14 03:47:06;;;;;;;11.73;10.33;;;9.70;99.90;;;;;;6225272;23;20397;-74
2023/05/14 03:49:32;;;;;;;11.53;10.43;;;9.70;99.90;;;;;;6205827;23;20397;-75
2023/05/14 03:51:58;;;;;;;9.83;8.83;;;9.70;99.90;;;;;;6234963;23;20154;-74
2023/05/14 03:54:25;;;;;;;11.30;10.10;;;9.70;99.90;;;;;;6208602;23;20158;-74
2023/05/14 03:56:50;;;;;;;12.03;10.90;;;9.70;99.90;;;;;;6233399;23;20380;-75
2023/05/14 03:59:16;;;;;;;13.80;12.40;;;9.70;99.90;;;;;;6228089;23;20436;-73
2023/05/14 04:01:43;;;;;;;11.63;10.40;;;9.80;99.90;;;;;;6223093;23;20174;-74
2023/05/14 04:04:08;;;;;;;12.77;11.40;;;9.80;99.90;;;;;;6228924;23;20149;-73
2023/05/14 04:06:34;;;;;;;11.90;10.60;;;9.80;99.90;;;;;;6228416;23;20440;-74
2023/05/14 04:09:01;;;;;;;9.37;8.47;;;9.80;99.90;;;;;;6224188;23;20149;-75
2023/05/14 04:11:27;;;;;;;8.30;7.50;;;9.80;99.90;;;;;;6225387;23;20362;-74
2023/05/14 04:13:53;;;;;;;8.30;7.50;;;9.80;99.90;;;;;;6224176;23;20364;-73
2023/05/14 04:16:18;;;;;;;9.00;7.77;;;9.80;99.90;;;;;;6223361;23;20146;-74
2023/05/14 04:18:44;;;;;;;9.03;8.13;;;9.90;99.90;;;;;;6224801;23;20240;-74
2023/05/14 04:21:10;;;;;;;10.23;9.13;;;9.90;99.90;;;;;;6224086;23;20182;-73
2023/05/14 04:23:36;;;;;;;11.00;9.67;;;9.90;99.90;;;;;;6225680;23;20365;-73
2023/05/14 04:26:02;;;;;;;8.33;7.53;;;9.90;99.90;;;;;;6225478;23;20381;-73
2023/05/14 04:28:28;;;;;;;9.80;8.80;;;10.00;99.90;;;;;;6224442;23;20197;-73
2023/05/14 04:30:54;;;;;;;10.93;9.83;;;10.10;99.90;;;;;;6222828;23;20540;-76
2023/05/14 04:33:19;;;;;;;15.00;13.60;;;10.10;99.90;;;;;;6224584;23;20134;-73
2023/05/14 04:35:45;;;;;;;12.23;10.07;;;10.10;99.90;;;;;;6226531;23;20604;-74
2023/05/14 04:38:13;;;;;;;16.53;11.90;;;10.20;99.90;;;;;;6224898;23;20165;-73
2023/05/14 04:40:38;;;;;;;14.37;10.97;;;10.20;99.90;;;;;;6222931;23;20385;-74
2023/05/14 04:43:04;;;;;;;12.80;11.60;;;10.30;99.90;;;;;;6224704;23;20376;-74
2023/05/14 04:45:31;;;;;;;13.13;11.73;;;10.40;99.90;;;;;;6226874;23;20134;-74
2023/05/14 04:47:56;;;;;;;10.90;9.90;;;10.40;99.90;;;;;;6226230;23;20130;-74
2023/05/14 04:50:22;;;;;;;12.90;10.40;;;10.50;99.90;;;;;;6228158;23;20415;-74
2023/05/14 04:52:47;;;;;;;10.50;9.37;;;10.50;99.90;;;;;;6235027;23;20141;-73
2023/05/14 04:55:13;;;;;;;9.80;8.90;;;10.60;99.90;;;;;;6229101;23;20134;-74
2023/05/14 04:57:39;;;;;;;8.40;7.50;;;10.60;99.90;;;;;;6227009;23;20142;-75
2023/05/14 05:00:05;;;;;;;10.27;9.27;;;10.70;99.90;;;;;;6224256;23;20247;-76
2023/05/14 05:02:30;;;;;;;13.13;11.13;;;10.90;99.90;;;;;;6225240;23;20131;-73
2023/05/14 05:04:56;;;;;;;9.97;9.03;;;11.20;99.90;;;;;;6224029;23;20695;-73
2023/05/14 05:07:22;;;;;;;9.17;8.33;;;11.70;99.90;;;;;;6223206;23;20150;-74
2023/05/14 05:09:47;;;;;;;10.70;9.60;;;12.20;99.90;;;;;;6222175;23;20177;-74
2023/05/14 05:12:13;;;;;;;10.93;9.93;;;12.60;99.90;;;;;;6223439;23;20418;-74
2023/05/14 05:14:38;;;;;;;11.33;10.17;;;13.00;99.90;;;;;;6223551;23;20138;-75
2023/05/14 05:17:04;;;;;;;12.47;10.30;;;13.50;99.90;;;;;;6223650;23;20134;-73
2023/05/14 05:19:29;;;;;;;17.73;10.40;;;13.70;99.90;;;;;;6222401;23;20186;-73
2023/05/14 05:21:55;;;;;;;8.77;7.87;;;13.90;99.90;;;;;;6224371;23;20126;-73
2023/05/14 05:24:20;;;;;;;9.27;7.93;;;14.10;99.90;;;;;;6224916;23;20311;-74
2023/05/14 05:26:46;;;;;;;9.50;8.27;;;14.20;99.90;;;;;;6223569;23;20453;-73
2023/05/14 05:29:11;;;;;;;9.40;8.40;;;14.40;99.90;;;;;;6230953;23;20439;-74
2023/05/14 05:31:37;;;;;;;9.17;8.37;;;14.60;99.90;;;;;;6208579;23;20158;-74
2023/05/14 05:34:03;;;;;;;10.57;8.80;;;14.70;99.90;;;;;;6226655;23;20146;-75
2023/05/14 05:36:28;;;;;;;8.40;7.70;;;14.90;99.90;;;;;;6223406;23;20145;-73
2023/05/14 05:38:54;;;;;;;9.03;8.23;;;15.10;99.90;;;;;;6223176;23;20166;-73
2023/05/14 05:41:21;;;;;;;8.43;7.73;;;15.30;99.90;;;;;;6224020;23;20486;-74
2023/05/14 05:43:46;;;;;;;8.70;7.80;;;15.60;99.90;;;;;;6224214;23;20673;-74
2023/05/14 05:46:12;;;;;;;8.20;7.50;;;15.90;99.90;;;;;;6225308;23;20359;-75
2023/05/14 05:48:38;;;;;;;8.03;7.33;;;16.20;99.90;;;;;;6227646;23;20144;-74
2023/05/14 05:51:03;;;;;;;8.83;7.87;;;16.50;99.90;;;;;;6227947;23;20164;-75
2023/05/14 05:53:29;;;;;;;9.53;8.33;;;16.80;99.90;;;;;;6227541;23;20137;-75
2023/05/14 05:55:55;;;;;;;7.47;6.77;;;17.10;99.40;;;;;;6225773;23;20152;-74
2023/05/14 05:58:20;;;;;;;7.20;6.60;;;17.40;97.60;;;;;;6227227;23;20299;-75
2023/05/14 06:00:47;;;;;;;7.37;6.77;;;17.50;96.30;;;;;;6227576;23;20166;-74
2023/05/14 06:03:13;;;;;;;8.57;7.87;;;17.70;94.70;;;;;;6232955;23;20130;-77
2023/05/14 06:05:39;;;;;;;8.67;7.87;;;17.60;93.30;;;;;;6232047;23;20361;-76
2023/05/14 06:08:04;;;;;;;9.63;8.50;;;17.60;92.50;;;;;;6204798;23;20149;-77
2023/05/14 06:10:30;;;;;;;8.27;7.57;;;17.60;92.00;;;;;;6213815;23;20196;-76
2023/05/14 06:12:56;;;;;;;9.40;8.50;;;17.70;91.90;;;;;;6212294;23;20205;-75
2023/05/14 06:15:22;;;;;;;8.10;7.30;;;17.70;90.50;;;;;;6229034;23;20361;-74
2023/05/14 06:17:47;;;;;;;9.87;8.97;;;17.60;91.90;;;;;;6230762;23;20605;-75
2023/05/14 06:20:13;;;;;;;10.73;9.57;;;17.50;91.90;;;;;;6232758;23;20609;-76
2023/05/14 06:22:39;;;;;;;10.33;9.43;;;17.30;92.50;;;;;;6229763;23;20208;-76
2023/05/14 06:25:05;;;;;;;10.10;9.23;;;17.10;93.70;;;;;;6205530;23;20146;-75
2023/05/14 06:27:31;;;;;;;11.23;10.17;;;16.80;95.60;;;;;;6229802;23;20368;-74
2023/05/14 06:29:57;;;;;;;13.23;12.03;;;16.70;97.00;;;;;;6228755;23;20411;-75
2023/05/14 06:32:23;;;;;;;11.10;10.10;;;16.60;96.70;;;;;;6202323;23;20365;-74
2023/05/14 06:34:48;;;;;;;10.60;9.60;;;16.60;97.40;;;;;;6203078;23;20150;-76
2023/05/14 06:37:14;;;;;;;10.50;9.40;;;16.60;97.60;;;;;;6232664;23;20153;-74
2023/05/14 06:39:46;;;;;;;10.17;9.13;;;16.70;96.90;;;;;;6209035;23;20559;-79
2023/05/14 06:42:12;;;;;;;11.10;9.93;;;16.80;96.60;;;;;;6230652;23;20419;-75
2023/05/14 06:44:38;;;;;;;11.70;10.60;;;17.00;96.00;;;;;;6231626;23;20366;-76
2023/05/14 06:47:07;;;;;;;12.23;11.13;;;17.10;94.50;;;;;;6233312;23;20130;-75
2023/05/14 06:49:33;;;;;;;10.90;9.80;;;17.30;93.30;;;;;;6206726;23;20165;-75
2023/05/14 06:51:59;;;;;;;11.17;10.20;;;17.40;92.80;;;;;;6202480;23;20463;-73
2023/05/14 06:54:24;;;;;;;10.70;9.70;;;17.40;92.30;;;;;;6228848;23;20376;-74
2023/05/14 06:56:50;;;;;;;10.20;9.10;;;17.50;92.30;;;;;;6231566;23;20130;-75
2023/05/14 06:59:16;;;;;;;14.37;13.07;;;17.50;92.10;;;;;;6228107;23;20212;-74
2023/05/14 07:01:42;;;;;;;14.60;13.30;;;17.50;92.00;;;;;;6228471;23;20170;-74
2023/05/14 07:04:08;;;;;;;12.57;11.07;;;17.50;92.30;;;;;;6228039;23;20141;-75
2023/05/14 07:06:34;;;;;;;15.30;12.77;;;17.40;92.80;;;;;;6232463;23;20421;-75
2023/05/14 07:09:01;;;;;;;14.80;13.27;;;17.40;92.30;;;;;;6229833;23;20141;-79
2023/05/14 07:11:26;;;;;;;13.33;12.03;;;17.40;91.20;;;;;;6181655;23;20161;-75
2023/05/14 07:13:52;;;;;;;14.17;12.77;;;17.40;92.20;;;;;;6231488;23;20616;-76
2023/05/14 07:16:18;;;;;;;12.87;11.67;;;17.40;91.20;;;;;;6232333;23;20209;-77
2023/05/14 07:18:44;;;;;;;14.50;12.20;;;17.30;90.90;;;;;;6229768;23;20158;-77
2023/05/14 07:21:10;;;;;;;11.90;10.70;;;17.20;91.40;;;;;;6230912;23;20186;-74
2023/05/14 07:23:37;;;;;;;10.80;9.70;;;17.00;91.60;;;;;;6226853;23;20391;-75
2023/05/14 07:26:04;;;;;;;10.77;9.63;;;16.90;92.80;;;;;;6227636;23;20354;-78
2023/05/14 07:28:29;;;;;;;13.57;12.13;;;16.80;93.20;;;;;;6227698;23;20365;-76
2023/05/14 07:30:55;;;;;;;12.53;11.23;;;16.70;89.60;;;;;;6204927;23;20420;-75
2023/05/14 07:33:22;;;;;;;10.97;9.83;;;16.50;90.80;;;;;;6204305;23;20534;-76
2023/05/14 07:35:48;;;;;;;12.13;10.80;;;16.40;91.90;;;;;;6209835;23;20209;-79
2023/05/14 07:38:14;;;;;;;10.93;9.87;;;16.40;92.00;;;;;;6202844;23;20436;-74
2023/05/14 07:40:40;;;;;;;9.47;8.40;;;16.50;93.00;;;;;;6227188;23;20418;-74
2023/05/14 07:43:06;;;;;;;11.83;9.43;;;16.50;92.40;;;;;;6232910;23;20621;-75
2023/05/14 07:45:31;;;;;;;9.63;8.67;;;16.60;91.10;;;;;;6233878;23;20178;-77
2023/05/14 07:47:57;;;;;;;8.90;8.00;;;16.60;83.30;;;;;;6231602;23;20213;-78
2023/05/14 07:50:23;;;;;;;11.20;8.60;;;16.70;85.70;;;;;;6204893;23;20246;-77
2023/05/14 07:52:49;;;;;;;9.73;8.40;;;16.80;88.10;;;;;;6232591;23;20380;-77
2023/05/14 07:55:15;;;;;;;7.37;6.77;;;16.80;84.00;;;;;;6232215;23;20138;-77
2023/05/14 07:57:40;;;;;;;8.67;7.60;;;16.90;75.80;;;;;;6207303;23;20139;-74
2023/05/14 08:00:07;;;;;;;9.00;8.23;;;16.90;76.70;;;;;;6205232;23;20427;-79
2023/05/14 08:02:38;;;;;;;8.50;7.70;;;17.00;79.90;;;;;;6232199;23;20138;-79
2023/05/14 08:05:04;;;;;;;7.40;6.37;;;17.10;79.40;;;;;;6180091;23;20404;-79
2023/05/14 08:07:30;;;;;;;5.80;5.20;;;17.10;77.20;;;;;;6234138;23;20165;-75
2023/05/14 08:09:56;;;;;;;6.90;6.20;;;17.20;76.70;;;;;;6206378;23;20461;-77
2023/05/14 08:12:22;;;;;;;10.70;7.10;;;17.30;76.30;;;;;;6231820;23;20157;-77
2023/05/14 08:14:48;;;;;;;7.53;6.40;;;17.30;75.40;;;;;;6231021;23;20176;-75
2023/05/14 08:17:13;;;;;;;13.30;8.33;;;17.40;74.90;;;;;;6204513;23;20771;-75
2023/05/14 08:19:39;;;;;;;7.67;6.97;;;17.50;72.20;;;;;;6229833;23;20188;-76
2023/05/14 08:22:06;;;;;;;7.40;6.70;;;17.50;72.00;;;;;;6231491;23;20144;-75
2023/05/14 08:24:31;;;;;;;8.27;6.97;;;17.50;69.30;;;;;;6237092;23;20161;-75
2023/05/14 08:26:57;;;;;;;7.50;6.80;;;17.50;69.40;;;;;;6206671;23;20439;-75
2023/05/14 08:29:23;;;;;;;7.27;6.53;;;17.50;69.20;;;;;;6231366;23;20240;-76
2023/05/14 08:31:49;;;;;;;5.80;4.60;;;17.50;68.60;;;;;;6234411;23;20396;-75
2023/05/14 08:34:15;;;;;;;5.03;4.63;;;17.60;69.30;;;;;;6233254;23;20141;-77
2023/05/14 08:36:41;;;;;;;6.40;5.80;;;17.80;70.00;;;;;;6230986;23;20365;-77
2023/05/14 08:39:07;;;;;;;6.47;5.60;;;17.90;69.50;;;;;;6229063;23;20181;-76
2023/05/14 08:41:33;;;;;;;5.30;4.87;;;18.10;65.50;;;;;;6230500;23;20226;-75
2023/05/14 08:44:11;;;;;;;4.97;4.47;;;18.10;64.10;;;;;;6229242;23;20143;-76
2023/05/14 08:46:38;;;;;;;5.37;4.97;;;18.20;63.20;;;;;;6229536;23;20357;-75
2023/05/14 08:49:18;;;;;;;5.73;4.40;;;18.20;59.50;;;;;;6230641;23;20412;-76
2023/05/14 08:51:47;;;;;;;4.77;4.03;;;18.30;58.80;;;;;;6232787;23;20360;-76
2023/05/14 08:54:16;;;;;;;3.57;3.37;;;18.30;56.70;;;;;;6232063;23;20381;-77
2023/05/14 08:56:45;;;;;;;4.63;4.10;;;18.30;57.40;;;;;;6230614;23;20460;-75
2023/05/14 08:59:11;;;;;;;3.40;3.10;;;18.40;57.30;;;;;;6233297;23;20428;-78
2023/05/14 09:01:40;;;;;;;5.97;5.47;;;18.50;56.90;;;;;;6233569;23;20349;-78
2023/05/14 09:04:08;;;;;;;4.83;4.40;;;18.50;55.50;;;;;;6235328;23;20608;-77
2023/05/14 09:06:37;;;;;;;4.17;3.80;;;18.60;55.10;;;;;;6234400;23;20385;-75
2023/05/14 09:09:03;;;;;;;3.57;3.30;;;18.60;55.30;;;;;;6234265;23;20389;-75
2023/05/14 09:11:29;;;;;;;3.40;3.10;;;18.60;55.60;;;;;;6235435;23;20414;-76
2023/05/14 09:13:55;;;;;;;4.27;2.93;;;18.70;55.60;;;;;;6233573;23;20608;-77
2023/05/14 09:16:21;;;;;;;2.97;2.77;;;18.80;55.40;;;;;;6206579;23;20142;-76
2023/05/14 09:18:46;;;;;;;3.43;3.03;;;18.90;55.00;;;;;;6231732;23;20191;-77
2023/05/14 09:21:14;;;;;;;4.40;3.43;;;19.00;54.50;;;;;;6206707;23;20764;-76
2023/05/14 09:23:43;;;;;;;3.50;2.80;;;19.00;54.00;;;;;;6232151;23;20147;-74
2023/05/14 09:26:10;;;;;;;3.13;2.80;;;19.10;54.40;;;;;;6232875;23;20424;-75
2023/05/14 09:28:39;;;;;;;4.80;4.30;;;19.10;54.20;;;;;;6232263;23;20370;-77
2023/05/14 09:31:05;;;;;;;3.57;3.27;;;19.20;54.90;;;;;;6233683;23;20394;-79
2023/05/14 09:33:31;;;;;;;5.57;4.43;;;19.30;54.70;;;;;;6207465;23;20457;-77
2023/05/14 09:35:59;;;;;;;6.20;5.07;;;19.40;54.30;;;;;;6181735;23;20374;-75
2023/05/14 09:38:32;;;;;;;7.43;4.73;;;19.40;53.40;;;;;;6210293;23;20205;-79
2023/05/14 09:40:59;;;;;;;7.60;4.00;;;19.30;53.10;;;;;;6232225;23;20477;-76
2023/05/14 09:43:25;;;;;;;9.30;4.10;;;19.20;53.60;;;;;;6209883;23;20370;-79
2023/05/14 09:45:52;;;;;;;4.03;3.73;;;19.20;53.50;;;;;;6232984;23;20367;-78
2023/05/14 09:48:18;;;;;;;4.37;3.63;;;19.30;53.70;;;;;;6205428;23;20380;-77
2023/05/14 09:50:45;;;;;;;3.57;3.27;;;19.40;53.70;;;;;;6234760;23;20402;-76
2023/05/14 09:53:12;;;;;;;3.80;3.50;;;19.50;53.70;;;;;;6234800;23;20400;-79
2023/05/14 09:55:39;;;;;;;4.90;3.20;;;19.60;53.70;;;;;;6235217;23;20368;-77
2023/05/14 09:58:05;;;;;;;7.40;4.60;;;19.70;53.50;;;;;;6235083;23;20425;-78
2023/05/14 10:00:31;;;;;;;10.13;5.07;;;19.80;52.80;;;;;;6206853;23;20400;-76
2023/05/14 10:02:58;;;;;;;5.60;4.73;;;19.90;51.90;;;;;;6207880;23;20387;-77
2023/05/14 10:05:25;;;;;;;3.90;3.60;;;19.80;51.10;;;;;;6234849;23;20368;-76
2023/05/14 10:07:55;;;;;;;3.70;3.40;;;19.80;51.20;;;;;;6235443;23;20356;-76
2023/05/14 10:10:25;;;;;;;7.17;5.37;;;19.80;51.40;;;;;;6212336;23;20406;-78
2023/05/14 10:12:57;;;;;;;4.50;3.90;;;19.80;51.20;;;;;;6233900;23;20384;-78
2023/05/14 10:15:40;;;;;;;5.57;5.07;;;19.80;51.90;;;;;;6208070;23;20392;-77
2023/05/14 10:18:10;;;;;;;4.80;4.40;;;20.00;52.00;;;;;;6206487;23;20415;-76
2023/05/14 10:20:38;;;;;;;4.37;3.97;;;20.20;51.30;;;;;;6178052;23;20435;-75
2023/05/14 10:23:06;;;;;;;6.00;4.50;;;20.30;51.40;;;;;;6233625;23;20371;-78
2023/05/14 10:25:33;;;;;;;5.43;4.93;;;20.50;51.30;;;;;;6182850;23;20395;-78
2023/05/14 10:28:01;;;;;;;5.37;4.90;;;20.60;51.10;;;;;;6235232;23;20357;-77
2023/05/14 10:30:26;;;;;;;7.57;6.87;;;20.60;50.80;;;;;;6208401;23;20403;-77
2023/05/14 10:33:10;;;;;;;6.87;6.17;;;20.70;50.70;;;;;;6233233;23;20357;-76
2023/05/14 10:36:06;;;;;;;7.87;7.07;;;20.80;51.30;;;;;;6208658;23;20149;-76
2023/05/14 10:38:36;;;;;;;7.23;6.50;;;20.80;50.40;;;;;;6208269;23;20416;-77
2023/05/14 10:41:10;;;;;;;10.10;7.03;;;20.80;50.20;;;;;;6205847;23;20400;-76
2023/05/14 10:43:38;;;;;;;8.73;7.80;;;20.90;50.00;;;;;;6210491;23;20369;-78
2023/05/14 10:46:05;;;;;;;7.33;6.60;;;20.90;50.00;;;;;;6234318;23;20365;-75
2023/05/14 10:48:32;;;;;;;6.57;6.00;;;20.80;50.60;;;;;;6232453;23;20380;-76
2023/05/14 10:50:59;;;;;;;6.97;5.90;;;20.60;50.90;;;;;;6235399;23;20396;-78
2023/05/14 10:53:39;;;;;;;7.53;6.73;;;20.70;51.10;;;;;;6210428;23;20411;-78
2023/05/14 10:56:12;;;;;;;5.80;5.30;;;20.70;49.70;;;;;;6211152;23;20381;-78
2023/05/14 10:58:43;;;;;;;10.80;7.50;;;20.90;49.80;;;;;;6235077;23;20416;-78
2023/05/14 11:01:10;;;;;;;8.30;7.53;;;20.90;49.70;;;;;;6209894;23;20380;-77
2023/05/14 11:03:44;;;;;;;10.07;7.33;;;21.10;49.40;;;;;;6213688;23;20465;-78
2023/05/14 11:06:12;;;;;;;14.87;7.80;;;21.20;49.30;;;;;;6234259;23;20368;-77
2023/05/14 11:08:38;;;;;;;7.20;6.50;;;21.40;48.80;;;;;;6237211;23;20373;-80
2023/05/14 11:11:05;;;;;;;10.43;8.40;;;21.60;48.70;;;;;;6216229;23;20404;-79
2023/05/14 11:13:33;;;;;;;6.90;6.10;;;21.70;48.30;;;;;;6213773;23;20392;-78
2023/05/14 11:16:00;;;;;;;6.27;5.53;;;21.90;48.60;;;;;;6241168;23;20389;-79
2023/05/14 11:18:26;;;;;;;8.43;7.70;;;22.30;48.30;;;;;;6213863;23;20432;-79
2023/05/14 11:20:52;;;;;;;7.63;6.70;;;22.60;48.00;;;;;;6239844;23;20445;-77
2023/05/14 11:23:21;;;;;;;10.10;7.70;;;23.00;47.80;;;;;;6213105;23;20471;-79
2023/05/14 11:25:47;;;;;;;9.30;8.50;;;23.20;47.20;;;;;;6213003;23;20376;-77
2023/05/14 11:28:13;;;;;;;8.27;7.57;;;23.30;45.90;;;;;;6238137;23;20364;-78
2023/05/14 11:30:39;;;;;;;11.80;7.03;;;23.10;46.50;;;;;;6213306;23;20158;-78
2023/05/14 11:33:04;;;;;;;9.50;7.87;;;23.30;45.60;;;;;;6186903;23;20122;-78
2023/05/14 11:35:30;;;;;;;7.70;7.00;;;23.20;44.50;;;;;;6239050;23;20125;-78
2023/05/14 11:37:56;;;;;;;7.10;6.30;;;23.10;44.90;;;;;;6239433;23;20161;-80
2023/05/14 11:40:22;;;;;;;7.83;7.13;;;23.00;44.80;;;;;;6237299;23;20420;-79
2023/05/14 11:42:51;;;;;;;8.63;7.60;;;23.00;46.20;;;;;;6213741;23;20134;-76
2023/05/14 11:45:25;;;;;;;7.97;7.27;;;23.10;46.40;;;;;;6238477;23;20173;-79
2023/05/14 11:47:53;;;;;;;7.83;7.07;;;23.00;45.90;;;;;;6211821;23;20377;-78
2023/05/14 11:50:20;;;;;;;9.00;7.97;;;23.00;45.10;;;;;;6212985;23;20393;-76
2023/05/14 11:52:47;;;;;;;8.30;6.40;;;22.90;44.40;;;;;;6213489;23;20362;-77
2023/05/14 11:55:13;;;;;;;7.03;6.33;;;22.90;44.80;;;;;;6241553;23;20437;-79
2023/05/14 11:57:39;;;;;;;7.13;5.97;;;22.80;44.70;;;;;;6215144;23;20365;-79
2023/05/14 12:00:13;;;;;;;8.03;7.30;;;22.60;45.40;;;;;;6194009;23;20173;-80
2023/05/14 12:02:39;;;;;;;7.77;6.03;;;22.60;45.80;;;;;;6241058;23;20376;-79
2023/05/14 12:05:10;;;;;;;7.00;6.30;;;22.70;46.30;;;;;;6216583;23;20369;-78
2023/05/14 12:07:36;;;;;;;7.53;6.57;;;22.90;45.10;;;;;;6212600;23;20586;-75
2023/05/14 12:10:03;;;;;;;7.27;6.57;;;22.90;45.20;;;;;;6214908;23;20384;-78
2023/05/14 12:12:35;;;;;;;10.00;8.23;;;23.10;45.30;;;;;;6214562;23;20660;-80
2023/05/14 12:15:00;;;;;;;7.10;6.50;;;23.30;45.40;;;;;;6214021;23;20432;-77
2023/05/14 12:17:26;;;;;;;8.87;8.03;;;23.40;44.40;;;;;;6214382;23;20380;-78
2023/05/14 12:19:52;;;;;;;6.77;6.17;;;23.50;43.50;;;;;;6215629;23;20222;-80
2023/05/14 12:22:22;;;;;;;8.10;7.33;;;23.80;44.10;;;;;;6214142;23;20142;-78
2023/05/14 12:24:59;;;;;;;8.90;7.70;;;23.80;43.70;;;;;;6239104;23;20464;-77
2023/05/14 12:27:26;;;;;;;7.93;6.70;;;24.10;42.20;;;;;;6190443;23;20365;-80
2023/05/14 12:30:02;;;;;;;8.83;6.47;;;24.10;41.50;;;;;;6241391;23;20404;-78
2023/05/14 12:32:51;;;;;;;6.53;5.93;;;23.70;41.80;;;;;;6241376;23;20418;-79
2023/05/14 12:35:17;;;;;;;6.27;5.67;;;23.70;41.90;;;;;;6216125;23;20381;-79
2023/05/14 12:37:44;;;;;;;7.40;4.97;;;23.80;41.50;;;;;;6216636;23;20361;-78
2023/05/14 12:40:10;;;;;;;6.20;4.87;;;24.00;41.30;;;;;;6216671;23;20424;-79